Time;durP1;ratioP1;P1;durP2;ratioP2;P2;SDS_P1;SDS_P2;PMS_P1;PMS_P2;Temp;Humidity;BMP_temperature;BMP_pressure;BME280_temperature;BME280_humidity;BME280_pressure;Samples;Min_cycle;Max_cycle;Signal;HPM_P1;HPM_P2
2021/01/07 00:00:10;;;;;;;29.08;18.02;;;231.00;1843.20;;;;;;4938023;29;20103;-68
2021/01/07 00:02:36;;;;;;;26.02;14.10;;;231.10;1817.60;;;;;;4948810;29;20023;-68
2021/01/07 00:05:02;;;;;;;29.38;17.67;;;231.10;1817.60;;;;;;4956784;28;20398;-69
2021/01/07 00:07:28;;;;;;;25.77;15.68;;;231.20;1817.60;;;;;;4957041;28;20027;-69
2021/01/07 00:09:53;;;;;;;19.27;11.32;;;231.30;1766.40;;;;;;4956865;28;20031;-69
2021/01/07 00:12:19;;;;;;;27.35;13.65;;;231.10;1817.60;;;;;;4956344;28;20023;-70
2021/01/07 00:14:45;;;;;;;30.80;14.65;;;231.20;1792.00;;;;;;4956913;28;20035;-69
2021/01/07 00:17:10;;;;;;;21.55;11.23;;;231.10;1792.00;;;;;;4956846;28;20016;-69
2021/01/07 00:23:05;;;;;;;34.67;19.27;;;230.60;1843.20;;;;;;4939774;28;20046;-70
2021/01/07 00:25:34;;;;;;;42.50;22.83;;;230.90;1843.20;;;;;;4919161;29;20143;-71
2021/01/07 00:28:03;;;;;;;40.72;22.20;;;230.70;1817.60;;;;;;4933442;29;20027;-75
2021/01/07 00:30:29;;;;;;;55.15;30.70;;;230.70;1868.80;;;;;;4938615;29;20087;-72
2021/01/07 00:32:55;;;;;;;55.42;26.42;;;230.90;1817.60;;;;;;4937069;29;20059;-73
2021/01/07 00:35:20;;;;;;;51.85;27.92;;;230.60;1868.80;;;;;;4936978;29;20039;-72
2021/01/07 00:37:46;;;;;;;56.17;30.17;;;230.80;1843.20;;;;;;4938142;29;20031;-73
2021/01/07 00:40:21;;;;;;;29.02;16.80;;;230.70;1894.40;;;;;;4938188;29;20046;-72
2021/01/07 00:42:56;;;;;;;21.55;14.10;;;230.60;1894.40;;;;;;4936706;29;20031;-72
2021/01/07 00:45:22;;;;;;;82.43;40.85;;;230.40;1945.60;;;;;;4937788;29;20493;-72
2021/01/07 00:47:48;;;;;;;39.00;22.98;;;230.50;1945.60;;;;;;4936476;29;20027;-72
2021/01/07 00:53:18;;;;;;;34.95;24.00;;;231.00;1868.80;;;;;;4955381;29;20055;-72
2021/01/07 00:55:47;;;;;;;50.28;33.97;;;230.80;1868.80;;;;;;4954730;29;20039;-72
2021/01/07 00:58:13;;;;;;;32.03;19.50;;;230.80;1868.80;;;;;;4954660;29;20039;-70
2021/01/07 01:00:39;;;;;;;31.30;21.92;;;230.50;1920.00;;;;;;4938620;29;20066;-73
2021/01/07 01:03:05;;;;;;;39.45;24.75;;;205.70;1945.60;;;;;;4954472;29;20452;-72
2021/01/07 01:05:31;;;;;;;38.00;21.63;;;205.50;1996.80;;;;;;4954406;29;20106;-69
2021/01/07 01:07:57;;;;;;;30.60;19.85;;;205.50;1996.80;;;;;;4954488;29;20055;-70
2021/01/07 01:10:22;;;;;;;36.40;22.65;;;205.40;1996.80;;;;;;4954650;29;20081;-71
2021/01/07 01:12:48;;;;;;;44.35;29.00;;;230.40;1945.60;;;;;;4954340;29;20035;-72
2021/01/07 01:15:14;;;;;;;92.75;55.22;;;231.20;1920.00;;;;;;4954440;29;20031;-71
2021/01/07 01:17:41;;;;;;;94.78;59.42;;;231.00;1920.00;;;;;;4954317;29;20041;-71
2021/01/07 01:20:10;;;;;;;111.75;65.60;;;256.00;1868.80;;;;;;4954251;29;20031;-71
2021/01/07 01:22:35;;;;;;;82.60;46.92;;;256.10;1817.60;;;;;;4953515;29;20062;-71
2021/01/07 01:25:08;;;;;;;81.85;47.58;;;256.00;1817.60;;;;;;4915150;29;20043;-73
2021/01/07 01:27:35;;;;;;;460.55;262.77;;;256.00;1843.20;;;;;;4920840;29;20028;-72
2021/01/07 01:30:01;;;;;;;441.17;254.70;;;256.10;1868.80;;;;;;4935994;29;20123;-72
2021/01/07 01:32:26;;;;;;;184.50;104.95;;;231.30;1894.40;;;;;;4937014;29;20048;-72
2021/01/07 01:34:52;;;;;;;135.20;74.30;;;256.00;1843.20;;;;;;4936923;29;20422;-72
2021/01/07 01:37:18;;;;;;;160.55;93.30;;;256.30;1817.60;;;;;;4936736;29;20486;-72
2021/01/07 01:39:43;;;;;;;146.65;91.55;;;256.30;1843.20;;;;;;4936767;29;20086;-72
2021/01/07 01:42:11;;;;;;;133.85;84.10;;;256.40;1843.20;;;;;;4936943;29;20024;-72
2021/01/07 01:44:37;;;;;;;207.30;121.18;;;256.40;1843.20;;;;;;4936664;29;20035;-72
2021/01/07 01:47:02;;;;;;;145.18;93.05;;;256.10;1868.80;;;;;;4936768;29;20034;-72
2021/01/07 01:49:28;;;;;;;105.80;65.75;;;256.20;1868.80;;;;;;4936782;29;20067;-72
2021/01/07 01:51:55;;;;;;;53.17;29.73;;;256.40;1817.60;;;;;;4936218;29;20024;-72
2021/01/07 01:54:21;;;;;;;48.50;28.17;;;256.10;1792.00;;;;;;4936799;29;20032;-71
2021/01/07 01:56:49;;;;;;;62.40;30.70;;;256.00;1817.60;;;;;;4936602;29;20032;-72
2021/01/07 01:59:18;;;;;;;45.03;24.45;;;231.20;1817.60;;;;;;4934878;29;20040;-72
2021/01/07 02:01:44;;;;;;;50.55;25.88;;;256.20;1792.00;;;;;;4936450;29;20110;-73
2021/01/07 02:04:10;;;;;;;23.23;13.15;;;256.20;1766.40;;;;;;4936356;29;20123;-73
2021/01/07 02:06:40;;;;;;;25.40;15.18;;;256.00;1792.00;;;;;;4936226;29;20103;-73
2021/01/07 02:09:07;;;;;;;29.50;14.13;;;256.00;1792.00;;;;;;4936527;29;20023;-73
2021/01/07 02:11:34;;;;;;;17.42;9.50;;;231.20;1792.00;;;;;;4936394;29;20023;-73
2021/01/07 02:14:01;;;;;;;15.23;8.45;;;231.00;1817.60;;;;;;4936416;29;20060;-73
2021/01/07 02:16:27;;;;;;;30.40;14.38;;;231.00;1817.60;;;;;;4935043;29;20118;-73
2021/01/07 02:18:57;;;;;;;22.75;11.93;;;231.30;1792.00;;;;;;4936387;29;20031;-73
2021/01/07 02:21:23;;;;;;;19.33;10.65;;;256.00;1766.40;;;;;;4936069;29;20024;-73
2021/01/07 02:23:50;;;;;;;23.20;12.13;;;231.30;1766.40;;;;;;4935751;29;20055;-73
2021/01/07 02:26:20;;;;;;;24.75;13.93;;;231.30;1766.40;;;;;;4936175;29;20032;-73
2021/01/07 02:28:46;;;;;;;40.78;26.55;;;256.10;1740.80;;;;;;4936138;29;20478;-73
2021/01/07 02:31:13;;;;;;;53.30;33.13;;;256.00;1792.00;;;;;;4936195;29;20028;-73
2021/01/07 02:33:39;;;;;;;46.42;29.27;;;256.10;1792.00;;;;;;4936125;29;20027;-78
2021/01/07 02:36:05;;;;;;;50.72;33.30;;;256.20;1792.00;;;;;;4937071;29;20028;-79
2021/01/07 02:38:31;;;;;;;63.42;37.70;;;256.30;1792.00;;;;;;4937321;29;20046;-77
2021/01/07 02:40:57;;;;;;;56.75;30.40;;;256.10;1792.00;;;;;;4936140;29;20463;-74
2021/01/07 02:43:23;;;;;;;69.03;35.83;;;256.00;1792.00;;;;;;4935869;29;20038;-72
2021/01/07 02:45:48;;;;;;;54.88;32.03;;;231.30;1792.00;;;;;;4936318;29;20028;-71
2021/01/07 02:48:14;;;;;;;55.78;33.55;;;256.20;1766.40;;;;;;4935939;29;20463;-70
2021/01/07 02:50:40;;;;;;;69.43;35.78;;;256.20;1766.40;;;;;;4934655;29;20475;-70
2021/01/07 02:53:05;;;;;;;63.30;34.47;;;256.20;1766.40;;;;;;4935674;29;20032;-70
2021/01/07 02:55:31;;;;;;;61.08;36.67;;;231.30;1792.00;;;;;;4935961;29;20091;-69
2021/01/07 02:57:57;;;;;;;64.43;37.03;;;256.00;1817.60;;;;;;4936042;29;20132;-71
2021/01/07 03:00:23;;;;;;;57.47;35.05;;;256.20;1792.00;;;;;;4936175;29;20122;-70
2021/01/07 03:02:49;;;;;;;83.57;49.47;;;256.30;1792.00;;;;;;4935916;29;20119;-71
2021/01/07 03:05:15;;;;;;;79.25;49.13;;;256.20;1792.00;;;;;;4935750;29;20043;-70
2021/01/07 03:07:41;;;;;;;99.72;57.85;;;256.20;1792.00;;;;;;4935640;29;20090;-70
2021/01/07 03:10:11;;;;;;;128.48;76.00;;;256.20;1817.60;;;;;;4936008;29;20467;-71
2021/01/07 03:12:37;;;;;;;91.95;56.15;;;256.10;1817.60;;;;;;4935169;29;20397;-72
2021/01/07 03:15:04;;;;;;;104.03;64.75;;;231.10;1868.80;;;;;;4934580;29;20115;-71
2021/01/07 03:17:30;;;;;;;109.38;66.07;;;231.20;1843.20;;;;;;4935818;29;20049;-72
2021/01/07 03:19:56;;;;;;;109.45;66.13;;;256.00;1843.20;;;;;;4935730;29;20110;-72
2021/01/07 03:22:21;;;;;;;181.32;102.60;;;256.10;1817.60;;;;;;4935025;29;20482;-71
2021/01/07 03:24:47;;;;;;;163.20;94.32;;;231.20;1868.80;;;;;;4934661;29;20062;-72
2021/01/07 03:27:14;;;;;;;137.02;84.70;;;230.90;1894.40;;;;;;4935746;29;20028;-72
2021/01/07 03:29:39;;;;;;;144.10;88.38;;;230.60;1945.60;;;;;;4935580;29;20024;-72
2021/01/07 03:32:05;;;;;;;95.57;61.90;;;231.00;1894.40;;;;;;4935695;29;20027;-74
2021/01/07 03:34:31;;;;;;;81.13;51.92;;;231.10;1894.40;;;;;;4936134;29;20024;-74
2021/01/07 03:36:56;;;;;;;91.43;57.53;;;231.30;1894.40;;;;;;4935590;29;20087;-72
2021/01/07 03:39:22;;;;;;;94.55;58.78;;;231.30;1868.80;;;;;;4934494;29;20035;-73
2021/01/07 03:41:48;;;;;;;104.85;63.80;;;256.00;1843.20;;;;;;4935516;29;20498;-72
2021/01/07 03:44:13;;;;;;;98.53;65.75;;;256.10;1843.20;;;;;;4935437;29;20105;-72
2021/01/07 03:46:39;;;;;;;103.90;64.35;;;256.00;1843.20;;;;;;4935619;29;20046;-72
2021/01/07 03:49:06;;;;;;;104.25;70.55;;;256.00;1817.60;;;;;;4938835;29;20482;-72
2021/01/07 03:51:32;;;;;;;139.93;86.85;;;256.00;1868.80;;;;;;4938709;29;20020;-72
2021/01/07 03:53:58;;;;;;;143.32;88.10;;;231.30;1843.20;;;;;;4938640;29;20024;-72
2021/01/07 03:56:24;;;;;;;124.47;76.90;;;231.30;1843.20;;;;;;4938772;29;20087;-72
2021/01/07 03:58:49;;;;;;;95.47;63.03;;;231.00;1868.80;;;;;;4938688;29;20024;-74
2021/01/07 04:01:16;;;;;;;101.82;62.45;;;205.60;1945.60;;;;;;4938763;29;20062;-72
2021/01/07 04:03:41;;;;;;;113.35;70.40;;;205.20;2022.40;;;;;;4938740;29;20490;-72
2021/01/07 04:06:07;;;;;;;102.85;62.75;;;205.00;2048.00;;;;;;4938537;29;20035;-71
2021/01/07 04:08:33;;;;;;;79.03;48.28;;;205.30;1996.80;;;;;;4938876;29;20051;-71
2021/01/07 04:10:59;;;;;;;77.72;48.08;;;205.60;1971.20;;;;;;4938678;29;20024;-71
2021/01/07 04:13:24;;;;;;;71.75;45.45;;;230.50;1920.00;;;;;;4938308;29;20024;-71
2021/01/07 04:15:50;;;;;;;56.63;37.47;;;230.70;1920.00;;;;;;4938339;29;20426;-70
2021/01/07 04:18:16;;;;;;;48.80;28.70;;;230.80;1894.40;;;;;;4938278;29;20031;-70
2021/01/07 04:20:42;;;;;;;59.38;34.05;;;205.70;1945.60;;;;;;4938312;29;20019;-71
2021/01/07 04:23:08;;;;;;;58.75;36.20;;;205.50;1971.20;;;;;;4937568;29;20405;-74
2021/01/07 04:25:33;;;;;;;59.22;38.78;;;230.60;1920.00;;;;;;4938175;29;20051;-72
2021/01/07 04:27:59;;;;;;;66.47;45.40;;;230.80;1868.80;;;;;;4938023;29;20030;-71
2021/01/07 04:30:25;;;;;;;66.70;42.10;;;230.90;1868.80;;;;;;4938107;29;20031;-71
2021/01/07 04:32:51;;;;;;;72.78;45.75;;;230.70;1894.40;;;;;;4938304;29;20118;-72
2021/01/07 04:35:16;;;;;;;73.47;45.53;;;230.80;1894.40;;;;;;4938140;29;20028;-71
2021/01/07 04:37:42;;;;;;;68.25;44.97;;;230.80;1894.40;;;;;;4937902;29;20027;-70
2021/01/07 04:40:08;;;;;;;70.75;43.03;;;230.90;1868.80;;;;;;4938104;29;20038;-70
2021/01/07 04:42:35;;;;;;;66.90;43.40;;;230.90;1843.20;;;;;;4937831;29;20030;-72
2021/01/07 04:45:02;;;;;;;74.97;47.97;;;230.90;1843.20;;;;;;4937763;29;20103;-72
2021/01/07 04:47:29;;;;;;;92.78;58.03;;;230.90;1843.20;;;;;;4937750;29;20478;-73
2021/01/07 04:49:55;;;;;;;79.07;51.03;;;230.80;1868.80;;;;;;4937816;29;20413;-71
2021/01/07 04:52:22;;;;;;;72.60;47.67;;;230.70;1894.40;;;;;;4937648;29;20070;-71
2021/01/07 04:54:51;;;;;;;63.30;44.13;;;230.80;1843.20;;;;;;4937675;29;20032;-72
2021/01/07 04:57:17;;;;;;;56.47;37.55;;;230.90;1894.40;;;;;;4937621;29;20031;-73
2021/01/07 04:59:42;;;;;;;41.63;27.38;;;230.80;1894.40;;;;;;4937619;29;20526;-71
2021/01/07 05:02:08;;;;;;;48.58;32.53;;;205.60;1920.00;;;;;;4937557;29;20028;-71
2021/01/07 05:04:51;;;;;;;35.90;24.92;;;205.20;1971.20;;;;;;4937444;29;20031;-72
2021/01/07 05:07:18;;;;;;;33.60;23.83;;;204.90;2022.40;;;;;;4937286;29;20039;-73
2021/01/07 05:09:44;;;;;;;33.35;23.25;;;205.00;2022.40;;;;;;4937625;29;20023;-71
2021/01/07 05:12:12;;;;;;;24.00;15.93;;;205.00;2022.40;;;;;;4937627;29;20114;-71
2021/01/07 05:14:45;;;;;;;25.73;17.65;;;179.90;2048.00;;;;;;4937340;29;20024;-71
2021/01/07 05:17:16;;;;;;;39.70;27.33;;;204.90;1996.80;;;;;;4937267;29;20556;-71
2021/01/07 05:19:42;;;;;;;42.88;27.63;;;179.90;2048.00;;;;;;4937367;29;20047;-71
2021/01/07 05:22:08;;;;;;;44.40;28.83;;;179.90;2073.60;;;;;;4936701;29;20031;-71
2021/01/07 05:24:35;;;;;;;38.25;27.38;;;179.90;2048.00;;;;;;4936821;29;20063;-71
2021/01/07 05:27:16;;;;;;;43.40;29.13;;;179.70;2099.20;;;;;;4937105;29;20026;-72
2021/01/07 05:29:42;;;;;;;;;;;179.50;2099.20;;;;;;4937465;29;20028;-72
2021/01/07 05:32:09;;;;;;;40.35;24.48;;;179.50;2099.20;;;;;;4937056;29;20034;-72
2021/01/07 05:34:48;;;;;;;25.25;17.73;;;179.70;2099.20;;;;;;4937042;29;20426;-72
2021/01/07 05:37:19;;;;;;;25.15;17.90;;;179.60;2099.20;;;;;;4935620;29;20027;-72
2021/01/07 05:39:46;;;;;;;23.52;15.90;;;179.40;2124.80;;;;;;4936971;29;20110;-74
2021/01/07 05:42:12;;;;;;;17.88;13.35;;;179.50;2099.20;;;;;;4936844;29;20028;-73
2021/01/07 05:44:45;;;;;;;24.60;16.52;;;179.60;2073.60;;;;;;4936140;29;20071;-75
2021/01/07 05:47:30;;;;;;;30.95;19.92;;;179.70;2073.60;;;;;;4936647;29;20498;-75
2021/01/07 05:49:57;;;;;;;38.45;25.08;;;179.40;2099.20;;;;;;4936844;29;20028;-73
2021/01/07 05:52:27;;;;;;;50.85;30.45;;;179.50;2073.60;;;;;;4936494;29;20036;-73
2021/01/07 05:54:53;;;;;;;62.08;40.40;;;179.80;2048.00;;;;;;4936874;29;20063;-73
2021/01/07 05:57:19;;;;;;;73.60;43.83;;;204.80;1996.80;;;;;;4936591;29;20023;-73
2021/01/07 05:59:48;;;;;;;64.55;42.15;;;179.70;2022.40;;;;;;4936442;29;20034;-73
2021/01/07 06:02:16;;;;;;;62.13;42.95;;;179.40;2073.60;;;;;;4936567;29;20023;-73
2021/01/07 06:04:51;;;;;;;69.55;48.05;;;179.30;2099.20;;;;;;4936783;29;20483;-71
2021/01/07 06:07:17;;;;;;;86.75;58.28;;;179.30;2099.20;;;;;;4936526;29;20028;-71
2021/01/07 06:09:48;;;;;;;96.97;64.72;;;179.40;2099.20;;;;;;4935895;29;20038;-72
2021/01/07 06:12:14;;;;;;;90.88;64.07;;;179.50;2073.60;;;;;;4936350;29;20058;-72
2021/01/07 06:14:45;;;;;;;85.80;58.90;;;179.70;2048.00;;;;;;4936157;29;20035;-71
2021/01/07 06:17:12;;;;;;;64.55;43.97;;;179.40;2073.60;;;;;;4936274;29;20044;-72
2021/01/07 06:19:40;;;;;;;59.15;39.85;;;179.20;2099.20;;;;;;4936323;29;20500;-72
2021/01/07 06:22:16;;;;;;;63.92;44.72;;;154.50;2099.20;;;;;;4936114;29;20479;-72
2021/01/07 06:24:44;;;;;;;72.13;46.65;;;154.50;2099.20;;;;;;4936063;29;20039;-72
2021/01/07 06:27:32;;;;;;;70.18;45.35;;;154.30;2124.80;;;;;;4936135;29;20028;-72
2021/01/07 06:30:06;;;;;;;85.50;53.50;;;154.30;2124.80;;;;;;4936283;29;20040;-72
2021/01/07 06:32:32;;;;;;;95.05;61.00;;;154.10;2150.40;;;;;;4936146;29;20036;-72
2021/01/07 06:34:58;;;;;;;100.25;65.78;;;154.40;2124.80;;;;;;4936046;29;20054;-73
2021/01/07 06:37:36;;;;;;;91.97;63.20;;;154.30;2124.80;;;;;;4936149;29;20027;-71
2021/01/07 06:40:05;;;;;;;93.35;60.95;;;154.30;2099.20;;;;;;4935922;29;20031;-72
2021/01/07 06:42:33;;;;;;;95.05;63.92;;;154.30;2124.80;;;;;;4935939;29;20028;-71
2021/01/07 06:44:59;;;;;;;115.93;78.97;;;179.50;2073.60;;;;;;4935846;29;20091;-72
2021/01/07 06:47:28;;;;;;;97.43;63.92;;;179.90;1996.80;;;;;;4936109;29;20501;-73
2021/01/07 06:49:54;;;;;;;102.80;62.42;;;179.60;2022.40;;;;;;4936085;29;20538;-73
2021/01/07 06:52:25;;;;;;;116.30;65.43;;;179.20;2073.60;;;;;;4935757;29;20530;-72
2021/01/07 06:54:54;;;;;;;111.47;66.95;;;154.50;2073.60;;;;;;4935865;29;20483;-74
2021/01/07 06:57:20;;;;;;;125.63;81.10;;;179.30;2073.60;;;;;;4935897;29;20116;-74
2021/01/07 07:00:00;;;;;;;132.27;91.57;;;179.80;2022.40;;;;;;4935974;29;20028;-72
2021/01/07 07:02:27;;;;;;;149.60;102.30;;;204.90;1945.60;;;;;;4935797;29;20020;-74
2021/01/07 07:05:08;;;;;;;176.85;108.32;;;205.00;1920.00;;;;;;4935908;29;20079;-73
2021/01/07 07:07:48;;;;;;;186.82;115.18;;;180.00;1971.20;;;;;;4935792;29;20383;-72
2021/01/07 07:10:17;;;;;;;200.45;122.47;;;204.90;1945.60;;;;;;4935772;29;20024;-73
2021/01/07 07:12:46;;;;;;;292.95;183.10;;;179.90;1996.80;;;;;;4935693;29;20063;-73
2021/01/07 07:15:13;;;;;;;228.45;140.80;;;180.00;1996.80;;;;;;4935755;29;20439;-72
2021/01/07 07:17:40;;;;;;;140.68;96.70;;;179.70;2022.40;;;;;;4935700;29;20063;-72
2021/01/07 07:20:09;;;;;;;176.85;120.95;;;179.60;2048.00;;;;;;4935735;29;20043;-72
2021/01/07 07:22:44;;;;;;;245.75;134.50;;;179.80;2022.40;;;;;;4943159;29;20046;-72
2021/01/07 07:25:12;;;;;;;119.18;77.05;;;180.10;1996.80;;;;;;4944272;29;20035;-70
2021/01/07 07:27:50;;;;;;;107.20;72.40;;;179.80;2022.40;;;;;;4939497;29;20065;-70
2021/01/07 07:30:29;;;;;;;148.65;94.95;;;204.90;1996.80;;;;;;4946623;29;20020;-69
2021/01/07 07:32:57;;;;;;;125.47;88.50;;;205.30;1945.60;;;;;;4947636;29;20436;-73
2021/01/07 07:35:24;;;;;;;142.05;102.50;;;205.50;1894.40;;;;;;4947959;29;20434;-72
2021/01/07 07:37:51;;;;;;;202.65;128.02;;;205.10;1971.20;;;;;;4947576;28;20074;-71
2021/01/07 07:40:38;;;;;;;103.55;71.35;;;204.90;1996.80;;;;;;4943296;29;20047;-69
2021/01/07 07:43:06;;;;;;;103.03;71.85;;;180.00;2048.00;;;;;;4944174;28;20024;-71
2021/01/07 07:45:33;;;;;;;113.22;76.55;;;205.20;1996.80;;;;;;4938343;28;20055;-71
2021/01/07 07:47:59;;;;;;;118.68;81.90;;;205.70;1920.00;;;;;;4977491;28;20074;-71
2021/01/07 07:50:30;;;;;;;129.68;88.60;;;205.40;1920.00;;;;;;4976671;28;20508;-71
2021/01/07 07:53:09;;;;;;;137.77;96.85;;;205.00;1971.20;;;;;;4977161;28;20038;-71
2021/01/07 07:55:42;;;;;;;272.50;155.45;;;205.20;1971.20;;;;;;4977278;28;20034;-71
2021/01/07 07:58:15;;;;;;;276.08;153.60;;;205.60;1894.40;;;;;;4977155;28;20027;-71
2021/01/07 08:01:00;;;;;;;183.77;119.25;;;230.70;1868.80;;;;;;4977220;28;20019;-70
2021/01/07 08:03:29;;;;;;;88.10;59.08;;;231.10;1817.60;;;;;;4976983;28;20031;-70
2021/01/07 08:06:00;;;;;;;85.93;56.03;;;256.00;1740.80;;;;;;4977081;28;20389;-71
2021/01/07 08:08:30;;;;;;;281.70;150.95;;;256.00;1766.40;;;;;;4976903;28;20018;-71
2021/01/07 08:10:58;;;;;;;77.75;49.97;;;256.10;1740.80;;;;;;4976967;28;20031;-71
2021/01/07 08:13:26;;;;;;;253.02;118.53;;;256.20;1715.20;;;;;;4976910;28;20424;-71
2021/01/07 08:15:53;;;;;;;94.25;54.42;;;231.10;1766.40;;;;;;4976842;28;20078;-72
2021/01/07 08:18:21;;;;;;;137.73;86.70;;;256.20;1715.20;;;;;;4976771;28;20031;-71
2021/01/07 08:20:49;;;;;;;106.50;72.95;;;256.60;1689.60;;;;;;4967917;28;20030;-71
2021/01/07 08:23:16;;;;;;;108.38;65.15;;;256.50;1689.60;;;;;;4957065;28;20130;-71
2021/01/07 08:25:45;;;;;;;102.28;60.28;;;256.40;1715.20;;;;;;4957305;28;20089;-71
2021/01/07 08:28:17;;;;;;;105.40;66.53;;;256.30;1715.20;;;;;;4956081;28;20027;-71
2021/01/07 08:30:49;;;;;;;86.72;57.97;;;256.40;1689.60;;;;;;4957216;28;20028;-71
2021/01/07 08:33:17;;;;;;;133.35;84.78;;;281.80;1638.40;;;;;;4956652;28;20059;-71
2021/01/07 08:35:45;;;;;;;110.65;75.43;;;282.20;1612.80;;;;;;4957206;28;20058;-71
2021/01/07 08:38:23;;;;;;;107.47;72.80;;;282.50;1612.80;;;;;;4957192;28;20098;-71
2021/01/07 08:40:49;;;;;;;91.50;65.55;;;307.30;1587.20;;;;;;4957164;28;20114;-71
2021/01/07 08:43:14;;;;;;;92.50;67.38;;;282.40;1587.20;;;;;;4957040;28;20099;-71
2021/01/07 08:45:40;;;;;;;98.93;74.00;;;281.70;1638.40;;;;;;4957048;28;20039;-71
2021/01/07 08:48:07;;;;;;;119.80;83.40;;;256.90;1664.00;;;;;;4957016;28;20027;-71
2021/01/07 08:50:33;;;;;;;135.40;88.53;;;281.60;1689.60;;;;;;4957082;28;20038;-71
2021/01/07 08:52:59;;;;;;;100.18;73.60;;;281.90;1638.40;;;;;;4956999;28;20054;-71
2021/01/07 08:55:51;;;;;;;109.07;79.00;;;281.90;1638.40;;;;;;4956656;28;20059;-71
2021/01/07 08:58:35;;;;;;;141.32;105.50;;;282.30;1612.80;;;;;;4956710;28;20174;-71
2021/01/07 09:01:00;;;;;;;183.27;123.15;;;307.40;1612.80;;;;;;4956952;28;20036;-71
2021/01/07 09:03:35;;;;;;;137.57;103.35;;;307.60;1587.20;;;;;;4956777;28;20046;-71
2021/01/07 09:06:07;;;;;;;113.90;82.97;;;307.80;1587.20;;;;;;4956833;28;20161;-71
2021/01/07 09:08:33;;;;;;;113.50;85.85;;;332.80;1536.00;;;;;;4956398;28;20019;-71
2021/01/07 09:11:06;;;;;;;109.68;81.68;;;332.90;1536.00;;;;;;4956369;28;20390;-71
2021/01/07 09:13:31;;;;;;;119.75;92.03;;;358.40;1459.20;;;;;;4956268;28;20390;-71
2021/01/07 09:16:11;;;;;;;115.53;87.72;;;384.40;1280.00;;;;;;4956587;28;20023;-71
2021/01/07 09:18:37;;;;;;;114.88;86.43;;;487.00;998.40;;;;;;4956397;28;20529;-73
2021/01/07 09:21:13;;;;;;;94.63;73.82;;;563.60;870.40;;;;;;4956375;28;20104;-71
2021/01/07 09:23:39;;;;;;;76.35;61.90;;;589.70;742.40;;;;;;4955768;28;20047;-71
2021/01/07 09:26:04;;;;;;;65.72;51.95;;;640.00;691.20;;;;;;4956169;28;20079;-69
2021/01/07 09:28:34;;;;;;;61.38;51.00;;;615.00;691.20;;;;;;4956323;28;20102;-71
2021/01/07 09:31:00;;;;;;;60.95;48.53;;;588.80;819.20;;;;;;4956144;28;20106;-69
2021/01/07 09:33:26;;;;;;;72.05;56.20;;;589.60;742.40;;;;;;4956197;28;20106;-70
2021/01/07 09:35:51;;;;;;;74.65;65.55;;;640.60;640.00;;;;;;4956348;28;20051;-69
2021/01/07 09:38:17;;;;;;;66.20;55.28;;;666.50;614.40;;;;;;4955868;28;20030;-69
2021/01/07 09:40:43;;;;;;;36.22;29.88;;;691.20;614.40;;;;;;4956095;28;20066;-70
2021/01/07 09:43:08;;;;;;;170.68;118.95;;;716.90;512.00;;;;;;4955836;28;20034;-70
2021/01/07 09:45:34;;;;;;;39.22;30.70;;;691.20;588.80;;;;;;4954946;28;20062;-69
2021/01/07 09:48:00;;;;;;;94.38;69.07;;;742.50;512.00;;;;;;4955976;28;20034;-70
2021/01/07 09:50:25;;;;;;;65.13;49.00;;;716.80;563.20;;;;;;4955866;28;20027;-70
2021/01/07 09:52:51;;;;;;;25.38;22.55;;;640.90;614.40;;;;;;4955838;28;20089;-69
2021/01/07 09:55:17;;;;;;;17.80;15.30;;;666.30;588.80;;;;;;4955826;28;20478;-70
2021/01/07 09:57:51;;;;;;;13.32;12.05;;;717.30;486.40;;;;;;4955858;28;20090;-70
2021/01/07 10:00:18;;;;;;;18.38;16.48;;;742.70;486.40;;;;;;4954298;29;20031;-69
2021/01/07 10:02:43;;;;;;;28.98;24.58;;;768.00;460.80;;;;;;4955806;28;20028;-70
2021/01/07 10:05:10;;;;;;;28.73;25.63;;;793.90;435.20;;;;;;4955699;28;20094;-69
2021/01/07 10:07:36;;;;;;;22.02;18.80;;;819.20;409.60;;;;;;4955492;28;20381;-70
2021/01/07 10:10:02;;;;;;;20.67;17.50;;;794.30;409.60;;;;;;4955572;28;20031;-70
2021/01/07 10:12:27;;;;;;;21.70;19.60;;;794.00;435.20;;;;;;4955720;28;20412;-70
2021/01/07 10:14:53;;;;;;;42.35;36.25;;;742.70;512.00;;;;;;4955877;28;20039;-70
2021/01/07 10:17:19;;;;;;;22.85;19.67;;;743.00;486.40;;;;;;4955784;28;20038;-71
2021/01/07 10:19:44;;;;;;;21.90;19.63;;;793.70;435.20;;;;;;4955430;28;20033;-70
2021/01/07 10:22:15;;;;;;;21.05;18.88;;;793.70;435.20;;;;;;4955563;28;20040;-70
2021/01/07 10:24:45;;;;;;;25.90;23.05;;;768.40;460.80;;;;;;4955147;28;20051;-70
2021/01/07 10:27:14;;;;;;;23.90;21.27;;;794.10;435.20;;;;;;4955736;28;20111;-71
2021/01/07 10:29:40;;;;;;;16.05;14.07;;;819.30;409.60;;;;;;4955486;28;20490;-70
2021/01/07 10:32:11;;;;;;;25.83;20.88;;;768.90;409.60;;;;;;4955462;28;20453;-70
2021/01/07 10:34:51;;;;;;;27.85;24.95;;;793.70;435.20;;;;;;4955449;28;20168;-70
2021/01/07 10:37:22;;;;;;;27.85;24.98;;;742.70;512.00;;;;;;4955435;28;20367;-71
2021/01/07 10:39:48;;;;;;;;;;;742.50;486.40;;;;;;4955817;28;20378;-71
2021/01/07 10:42:16;;;;;;;25.77;23.08;;;768.90;409.60;;;;;;4955781;28;20005;-71
2021/01/07 10:44:44;;;;;;;22.05;19.75;;;794.30;384.00;;;;;;4955133;28;20093;-71
2021/01/07 10:47:11;;;;;;;24.77;20.52;;;819.20;384.00;;;;;;4955167;28;20030;-71
2021/01/07 10:49:40;;;;;;;27.08;23.77;;;742.80;460.80;;;;;;4954616;28;20065;-71
2021/01/07 10:52:10;;;;;;;63.22;43.97;;;691.90;486.40;;;;;;4954049;28;20031;-71
2021/01/07 10:54:58;;;;;;;34.10;25.58;;;691.40;512.00;;;;;;4954369;28;20043;-70
2021/01/07 10:57:42;;;;;;;42.50;34.65;;;666.20;563.20;;;;;;4957573;28;20032;-69
2021/01/07 11:00:40;;;;;;;32.80;29.20;;;665.90;588.80;;;;;;4958718;29;20027;-69
2021/01/07 11:03:56;;;;;;;20.40;18.40;;;640.90;563.20;;;;;;4958869;28;20062;-69
2021/01/07 11:06:26;;;;;;;14.27;10.55;;;691.80;486.40;;;;;;4956519;28;20568;-71
2021/01/07 11:09:12;;;;;;;21.15;17.67;;;640.00;614.40;;;;;;4912086;28;20786;-67
2021/01/07 11:11:45;;;;;;;37.53;25.90;;;614.50;640.00;;;;;;4938828;29;20036;-68
2021/01/07 11:14:36;;;;;;;18.00;15.40;;;563.70;716.80;;;;;;4937483;29;20027;-67
2021/01/07 11:17:09;;;;;;;32.47;24.33;;;538.50;716.80;;;;;;4931980;29;20036;-69
2021/01/07 11:19:35;;;;;;;24.77;17.08;;;538.10;742.40;;;;;;4937314;29;20032;-68
2021/01/07 11:22:12;;;;;;;22.13;17.00;;;512.90;768.00;;;;;;4936672;29;20036;-68
2021/01/07 11:24:40;;;;;;;22.65;18.00;;;487.20;819.20;;;;;;4936825;29;20052;-70
2021/01/07 11:27:06;;;;;;;46.50;34.92;;;486.80;844.80;;;;;;4937144;29;20589;-69
2021/01/07 11:29:36;;;;;;;40.30;27.80;;;486.40;896.00;;;;;;4936834;29;20095;-69
2021/01/07 11:32:02;;;;;;;20.33;14.48;;;461.60;896.00;;;;;;4937003;29;20552;-68
2021/01/07 11:34:28;;;;;;;27.05;18.33;;;461.40;896.00;;;;;;4936841;29;20035;-69
2021/01/07 11:37:05;;;;;;;25.65;17.90;;;460.80;947.20;;;;;;4936923;29;20533;-68
2021/01/07 11:40:07;;;;;;;30.35;23.42;;;435.70;947.20;;;;;;4917856;29;20104;-69
2021/01/07 11:42:32;;;;;;;;;;;435.40;998.40;;;;;;4926077;29;20561;-68
2021/01/07 11:45:13;;;;;;;58.10;37.13;;;435.70;972.80;;;;;;4920618;29;19970;-68
2021/01/07 11:47:47;;;;;;;39.00;26.30;;;435.70;972.80;;;;;;4936494;29;20071;-68
2021/01/07 11:50:15;;;;;;;38.80;29.42;;;410.40;1024.00;;;;;;4936638;29;20111;-69
2021/01/07 11:52:44;;;;;;;47.85;34.03;;;435.30;1024.00;;;;;;4936376;29;20059;-69
2021/01/07 11:55:12;;;;;;;67.25;55.65;;;435.50;1049.60;;;;;;4936623;29;20072;-69
2021/01/07 11:57:41;;;;;;;78.30;57.85;;;435.50;1024.00;;;;;;4936483;29;20027;-69
2021/01/07 12:00:13;;;;;;;36.28;24.40;;;435.30;1024.00;;;;;;4936595;29;20023;-69
2021/01/07 12:02:43;;;;;;;54.70;35.60;;;435.30;1024.00;;;;;;4936280;29;20020;-68
2021/01/07 12:05:13;;;;;;;43.78;31.52;;;435.30;1049.60;;;;;;4936213;29;20044;-69
2021/01/07 12:07:43;;;;;;;33.50;25.17;;;410.20;1075.20;;;;;;4935449;29;20063;-69
2021/01/07 12:10:09;;;;;;;26.02;17.08;;;410.40;1075.20;;;;;;4934960;29;20394;-69
2021/01/07 12:12:44;;;;;;;34.05;26.08;;;410.40;1049.60;;;;;;4935295;29;20067;-69